Time;durP1;ratioP1;P1;durP2;ratioP2;P2;SDS_P1;SDS_P2;PMS_P1;PMS_P2;Temp;Humidity;BMP_temperature;BMP_pressure;BME280_temperature;BME280_humidity;BME280_pressure;Samples;Min_cycle;Max_cycle;Signal;HPM_P1;HPM_P2
2024/01/21 00:02:33;;;;;;;28.95;15.77;;;;;;;;;;8210263;28;20113;-63
2024/01/21 00:06:34;;;;;;;24.17;12.90;;;;;;;;;;8221347;28;20057;-63
2024/01/21 00:10:34;;;;;;;22.33;11.93;;;;;;;;;;8212381;28;20026;-63
2024/01/21 00:14:36;;;;;;;24.23;13.63;;;;;;;;;;8219637;28;20033;-63
2024/01/21 00:18:36;;;;;;;26.48;13.98;;;;;;;;;;8215444;28;20045;-63
2024/01/21 00:22:36;;;;;;;29.73;15.05;;;;;;;;;;8211897;28;20041;-63
2024/01/21 00:26:36;;;;;;;28.67;13.48;;;;;;;;;;8216226;28;20468;-63
2024/01/21 00:30:37;;;;;;;27.88;13.25;;;;;;;;;;8215332;28;20066;-62
2024/01/21 00:34:37;;;;;;;23.63;12.07;;;;;;;;;;8213277;28;20033;-63
2024/01/21 00:38:38;;;;;;;26.63;13.65;;;;;;;;;;8213484;28;20610;-63
2024/01/21 00:42:38;;;;;;;28.70;14.60;;;;;;;;;;8211878;28;20038;-63
2024/01/21 00:46:39;;;;;;;25.33;13.35;;;;;;;;;;8208648;28;20137;-63
2024/01/21 00:50:39;;;;;;;18.47;10.70;;;;;;;;;;8209069;28;20030;-63
2024/01/21 00:54:39;;;;;;;21.98;11.77;;;;;;;;;;8212404;28;20290;-64
2024/01/21 00:58:39;;;;;;;19.92;10.57;;;;;;;;;;8211856;28;20422;-63
2024/01/21 01:02:39;;;;;;;20.83;10.95;;;;;;;;;;8206252;28;20046;-63
2024/01/21 01:06:39;;;;;;;18.33;9.50;;;;;;;;;;8209226;28;20033;-64
2024/01/21 01:10:40;;;;;;;19.00;10.95;;;;;;;;;;8217788;28;20273;-63
2024/01/21 01:14:43;;;;;;;25.58;13.52;;;;;;;;;;8212537;28;20025;-63
2024/01/21 01:18:43;;;;;;;26.98;13.23;;;;;;;;;;8213868;28;20045;-63
2024/01/21 01:22:43;;;;;;;26.40;12.43;;;;;;;;;;8210294;28;20539;-63
2024/01/21 01:26:43;;;;;;;25.05;12.52;;;;;;;;;;8212909;28;20026;-63
2024/01/21 01:30:43;;;;;;;20.75;11.43;;;;;;;;;;8211822;28;20447;-62
2024/01/21 01:34:44;;;;;;;25.23;12.77;;;;;;;;;;8218809;28;20519;-63
2024/01/21 01:38:44;;;;;;;20.02;11.60;;;;;;;;;;8217911;28;20505;-63
2024/01/21 01:42:44;;;;;;;21.27;10.80;;;;;;;;;;8219253;28;20029;-62
2024/01/21 01:46:44;;;;;;;20.73;11.63;;;;;;;;;;8211891;28;20328;-61
2024/01/21 01:50:45;;;;;;;21.33;11.18;;;;;;;;;;8210844;28;20823;-61
2024/01/21 01:54:46;;;;;;;19.83;10.32;;;;;;;;;;8214831;28;20033;-61
2024/01/21 01:58:46;;;;;;;17.25;9.63;;;;;;;;;;8216187;28;20476;-62
2024/01/21 02:02:46;;;;;;;18.92;10.50;;;;;;;;;;8212950;28;20045;-61
2024/01/21 02:06:47;;;;;;;27.50;13.88;;;;;;;;;;8213071;28;20068;-63
2024/01/21 02:10:47;;;;;;;26.00;13.10;;;;;;;;;;8211203;28;20513;-63
2024/01/21 02:14:47;;;;;;;22.48;11.25;;;;;;;;;;8210092;28;20583;-63
2024/01/21 02:18:49;;;;;;;22.50;11.05;;;;;;;;;;8211062;28;20034;-63
2024/01/21 02:22:50;;;;;;;21.30;10.85;;;;;;;;;;8212683;28;20017;-63
2024/01/21 02:26:50;;;;;;;19.77;9.75;;;;;;;;;;8213969;28;20018;-63
2024/01/21 02:30:50;;;;;;;19.73;10.35;;;;;;;;;;8217785;28;20034;-63
2024/01/21 02:34:50;;;;;;;21.30;10.32;;;;;;;;;;8212521;28;20109;-63
2024/01/21 02:38:51;;;;;;;20.42;11.23;;;;;;;;;;8209356;28;20146;-62
2024/01/21 02:42:51;;;;;;;22.17;11.50;;;;;;;;;;8211578;28;20028;-62
2024/01/21 02:46:51;;;;;;;20.60;11.00;;;;;;;;;;8211148;28;20478;-63
2024/01/21 02:50:51;;;;;;;29.30;14.05;;;;;;;;;;8206887;28;20033;-63
2024/01/21 02:54:51;;;;;;;28.50;14.50;;;;;;;;;;8209436;28;21605;-63
2024/01/21 02:58:52;;;;;;;24.35;13.00;;;;;;;;;;8216456;28;21432;-63
2024/01/21 03:02:52;;;;;;;21.65;11.77;;;;;;;;;;8209507;28;20320;-63
2024/01/21 03:06:52;;;;;;;19.10;11.15;;;;;;;;;;8209721;28;21351;-63
2024/01/21 03:10:53;;;;;;;20.42;11.30;;;;;;;;;;8203068;28;20553;-63
2024/01/21 03:14:53;;;;;;;21.58;11.82;;;;;;;;;;8209757;28;21675;-63
2024/01/21 03:18:54;;;;;;;24.10;12.60;;;;;;;;;;8205784;28;20546;-63
2024/01/21 03:22:54;;;;;;;26.45;12.27;;;;;;;;;;8209788;28;20915;-64
2024/01/21 03:26:54;;;;;;;20.52;10.95;;;;;;;;;;8208132;28;20390;-63
2024/01/21 03:30:54;;;;;;;20.52;11.50;;;;;;;;;;8209568;28;20405;-63
2024/01/21 03:34:54;;;;;;;19.38;9.85;;;;;;;;;;8204659;28;22977;-63
2024/01/21 03:38:54;;;;;;;18.05;9.95;;;;;;;;;;8207932;28;21435;-62
2024/01/21 03:42:54;;;;;;;17.80;9.85;;;;;;;;;;8210981;28;20527;-61
2024/01/21 03:46:55;;;;;;;17.50;9.60;;;;;;;;;;8171785;28;1037147;-61
2024/01/21 03:50:55;;;;;;;18.00;9.38;;;;;;;;;;8210690;28;20033;-62
2024/01/21 03:54:56;;;;;;;16.98;9.18;;;;;;;;;;8216492;28;20594;-62
2024/01/21 03:58:56;;;;;;;20.88;10.85;;;;;;;;;;8211860;28;20030;-62
2024/01/21 04:02:56;;;;;;;21.50;10.48;;;;;;;;;;8207069;28;20300;-62
2024/01/21 04:06:56;;;;;;;22.42;12.35;;;;;;;;;;8210096;28;20695;-61
2024/01/21 04:10:57;;;;;;;22.27;10.57;;;;;;;;;;8205647;28;20025;-63
2024/01/21 04:14:57;;;;;;;16.80;9.18;;;;;;;;;;8208386;28;20751;-63
2024/01/21 04:18:57;;;;;;;16.35;9.43;;;;;;;;;;8204212;28;20038;-63
2024/01/21 04:22:57;;;;;;;17.45;9.15;;;;;;;;;;8207603;28;20041;-62
2024/01/21 04:26:57;;;;;;;15.68;9.10;;;;;;;;;;8207212;28;20048;-62
2024/01/21 04:30:58;;;;;;;17.52;9.60;;;;;;;;;;8209182;28;20690;-61
2024/01/21 04:34:58;;;;;;;16.75;9.05;;;;;;;;;;8206632;28;20288;-61
2024/01/21 04:38:58;;;;;;;18.42;10.90;;;;;;;;;;8204268;28;20280;-60
2024/01/21 04:42:58;;;;;;;21.25;10.38;;;;;;;;;;8208869;28;20393;-61
2024/01/21 04:46:58;;;;;;;24.25;11.05;;;;;;;;;;8208142;28;20053;-61
2024/01/21 04:50:59;;;;;;;17.98;10.00;;;;;;;;;;8207574;28;20463;-63
2024/01/21 04:54:59;;;;;;;17.00;9.00;;;;;;;;;;8210944;28;20033;-63
2024/01/21 04:58:59;;;;;;;24.45;10.52;;;;;;;;;;8209031;28;20053;-63
2024/01/21 05:02:59;;;;;;;19.23;10.13;;;;;;;;;;8209588;28;20130;-64
2024/01/21 05:07:00;;;;;;;21.02;10.20;;;;;;;;;;8208594;28;20591;-62
2024/01/21 05:11:00;;;;;;;19.42;9.60;;;;;;;;;;8210182;28;20077;-64
2024/01/21 05:15:00;;;;;;;17.35;10.10;;;;;;;;;;8212474;28;20435;-62
2024/01/21 05:19:01;;;;;;;19.33;9.82;;;;;;;;;;8209840;28;20285;-63
2024/01/21 05:23:01;;;;;;;23.60;12.30;;;;;;;;;;8209827;28;20014;-63
2024/01/21 05:27:01;;;;;;;19.67;10.48;;;;;;;;;;8214106;28;20171;-62
2024/01/21 05:31:02;;;;;;;20.90;10.18;;;;;;;;;;8212028;28;20485;-63
2024/01/21 05:35:02;;;;;;;18.88;10.88;;;;;;;;;;8211207;28;20026;-62
2024/01/21 05:39:03;;;;;;;18.98;10.85;;;;;;;;;;8211046;28;20581;-62
2024/01/21 05:43:03;;;;;;;21.20;11.93;;;;;;;;;;8211264;28;20281;-62
2024/01/21 05:47:04;;;;;;;19.92;9.63;;;;;;;;;;8210423;28;20048;-63
2024/01/21 05:51:04;;;;;;;103.50;15.25;;;;;;;;;;8206185;28;20493;-63
2024/01/21 05:55:04;;;;;;;105.25;15.20;;;;;;;;;;8211977;28;20034;-63
2024/01/21 05:59:04;;;;;;;42.75;12.45;;;;;;;;;;8210844;28;21937;-63
2024/01/21 06:03:05;;;;;;;24.92;11.32;;;;;;;;;;8209980;28;20177;-63
2024/01/21 06:07:05;;;;;;;23.38;11.25;;;;;;;;;;8214969;28;20149;-63
2024/01/21 06:11:06;;;;;;;24.60;11.68;;;;;;;;;;8210378;28;20283;-63
2024/01/21 06:15:06;;;;;;;181.65;17.33;;;;;;;;;;8213763;28;20018;-63
2024/01/21 06:19:06;;;;;;;29.13;12.13;;;;;;;;;;8215346;28;20058;-63
2024/01/21 06:23:07;;;;;;;67.22;12.40;;;;;;;;;;8214861;28;20153;-62
2024/01/21 06:27:07;;;;;;;164.32;16.63;;;;;;;;;;8212389;28;20641;-63
2024/01/21 06:31:08;;;;;;;59.05;15.40;;;;;;;;;;8216998;28;20176;-61
2024/01/21 06:35:08;;;;;;;42.63;11.50;;;;;;;;;;8219521;28;20529;-61
2024/01/21 06:39:08;;;;;;;26.45;12.82;;;;;;;;;;8215654;28;20026;-61
2024/01/21 06:43:08;;;;;;;188.70;20.38;;;;;;;;;;8215856;28;20392;-61
2024/01/21 06:47:08;;;;;;;88.00;17.08;;;;;;;;;;8211303;28;22193;-61
2024/01/21 06:51:21;;;;;;;86.07;14.75;;;;;;;;;;8207372;28;20290;-62
2024/01/21 06:55:21;;;;;;;86.65;16.75;;;;;;;;;;8210906;28;20103;-62
2024/01/21 06:59:21;;;;;;;31.35;13.85;;;;;;;;;;8214329;28;20762;-62
2024/01/21 07:03:22;;;;;;;25.50;12.88;;;;;;;;;;8214292;28;20286;-62
2024/01/21 07:07:22;;;;;;;35.85;14.55;;;;;;;;;;8213294;28;20650;-62
2024/01/21 07:11:22;;;;;;;53.30;14.05;;;;;;;;;;8211367;28;20049;-63
2024/01/21 07:15:22;;;;;;;29.08;13.20;;;;;;;;;;8217605;28;20511;-63
2024/01/21 07:19:23;;;;;;;173.65;20.45;;;;;;;;;;8215684;28;20571;-63
2024/01/21 07:23:23;;;;;;;25.35;12.77;;;;;;;;;;8215621;28;20077;-62
2024/01/21 07:27:23;;;;;;;30.02;13.02;;;;;;;;;;8215459;28;20015;-63
2024/01/21 07:31:24;;;;;;;29.13;13.15;;;;;;;;;;8212205;28;20780;-62
2024/01/21 07:35:24;;;;;;;14.00;7.85;;;;;;;;;;8213769;28;20112;-62
2024/01/21 07:39:24;;;;;;;15.95;7.13;;;;;;;;;;8212144;28;20452;-62
2024/01/21 07:43:25;;;;;;;16.95;7.20;;;;;;;;;;8215532;28;20033;-61
2024/01/21 07:47:26;;;;;;;12.10;7.20;;;;;;;;;;8212766;28;20373;-61
2024/01/21 07:51:26;;;;;;;19.80;9.85;;;;;;;;;;8211568;28;20117;-61
2024/01/21 07:55:26;;;;;;;22.27;10.50;;;;;;;;;;8206989;28;20032;-61
2024/01/21 07:59:26;;;;;;;18.45;9.90;;;;;;;;;;8215687;28;20053;-61
2024/01/21 08:03:26;;;;;;;27.33;12.90;;;;;;;;;;8214406;28;20088;-62
2024/01/21 08:07:27;;;;;;;122.78;18.75;;;;;;;;;;8209553;28;20029;-63
2024/01/21 08:11:27;;;;;;;30.58;12.95;;;;;;;;;;8208061;28;21054;-62
2024/01/21 08:15:27;;;;;;;24.52;12.00;;;;;;;;;;8213455;28;20046;-62
2024/01/21 08:19:28;;;;;;;30.98;13.90;;;;;;;;;;8212196;28;20029;-62
2024/01/21 08:23:28;;;;;;;18.45;9.43;;;;;;;;;;8211078;28;20034;-63
2024/01/21 08:27:28;;;;;;;12.80;6.65;;;;;;;;;;8212073;28;20030;-62
2024/01/21 08:31:28;;;;;;;13.20;8.02;;;;;;;;;;8210127;28;20045;-62
2024/01/21 08:35:29;;;;;;;12.07;6.82;;;;;;;;;;8215024;28;20569;-62
2024/01/21 08:39:29;;;;;;;36.75;16.30;;;;;;;;;;8210649;28;20030;-62
2024/01/21 08:43:29;;;;;;;32.10;16.20;;;;;;;;;;8210212;28;20057;-61
2024/01/21 08:47:29;;;;;;;32.75;15.68;;;;;;;;;;8211196;28;20034;-61
2024/01/21 08:51:30;;;;;;;30.88;14.75;;;;;;;;;;8213523;28;20026;-62
2024/01/21 08:55:30;;;;;;;34.20;15.00;;;;;;;;;;8207693;28;20026;-62
2024/01/21 08:59:30;;;;;;;32.50;15.13;;;;;;;;;;8208102;28;20088;-61
2024/01/21 09:03:31;;;;;;;28.80;13.70;;;;;;;;;;8210855;28;20123;-63
2024/01/21 09:07:31;;;;;;;28.15;13.27;;;;;;;;;;8204967;28;20280;-63
2024/01/21 09:11:31;;;;;;;33.60;15.73;;;;;;;;;;8209503;28;20046;-61
2024/01/21 09:15:31;;;;;;;26.83;14.23;;;;;;;;;;8208882;28;20364;-61
2024/01/21 09:19:31;;;;;;;25.35;13.10;;;;;;;;;;8210624;28;20097;-61
2024/01/21 09:23:32;;;;;;;32.63;15.48;;;;;;;;;;8214265;28;20038;-61
2024/01/21 09:27:32;;;;;;;28.65;13.93;;;;;;;;;;8208864;28;20034;-62
2024/01/21 09:31:34;;;;;;;24.70;13.17;;;;;;;;;;8208784;28;20031;-62
2024/01/21 09:35:34;;;;;;;30.00;14.00;;;;;;;;;;8210567;28;20280;-62
2024/01/21 09:39:34;;;;;;;26.33;12.07;;;;;;;;;;8223544;28;20030;-62
2024/01/21 09:43:37;;;;;;;25.52;13.23;;;;;;;;;;8212204;28;20042;-62
2024/01/21 09:47:38;;;;;;;21.98;12.15;;;;;;;;;;8203366;28;20042;-62
2024/01/21 09:51:38;;;;;;;28.35;13.15;;;;;;;;;;8210790;28;20099;-63
2024/01/21 09:55:38;;;;;;;16.88;9.13;;;;;;;;;;8215504;28;20030;-65
2024/01/21 09:59:39;;;;;;;17.27;8.85;;;;;;;;;;8215454;28;20104;-64
2024/01/21 10:03:39;;;;;;;16.88;8.45;;;;;;;;;;8216757;28;20034;-62
2024/01/21 10:07:40;;;;;;;18.23;9.88;;;;;;;;;;8215965;28;20473;-62
2024/01/21 10:11:42;;;;;;;16.33;9.43;;;;;;;;;;8217273;28;20026;-62
2024/01/21 10:15:42;;;;;;;15.73;9.35;;;;;;;;;;8221591;28;20045;-63
2024/01/21 10:19:43;;;;;;;15.10;7.88;;;;;;;;;;8224437;28;20026;-62
2024/01/21 10:23:44;;;;;;;14.15;7.07;;;;;;;;;;8217726;28;20050;-63
2024/01/21 10:27:45;;;;;;;10.23;6.25;;;;;;;;;;8212325;28;20034;-69
2024/01/21 10:31:45;;;;;;;11.77;6.43;;;;;;;;;;8214443;28;20065;-63
2024/01/21 10:35:47;;;;;;;10.90;6.70;;;;;;;;;;8212978;28;20133;-62
2024/01/21 10:39:48;;;;;;;18.17;10.40;;;;;;;;;;8219310;28;20034;-63
2024/01/21 10:43:49;;;;;;;14.63;9.27;;;;;;;;;;8215352;28;20113;-62
2024/01/21 10:47:51;;;;;;;16.60;9.85;;;;;;;;;;8213384;28;20447;-62
2024/01/21 10:51:52;;;;;;;13.68;8.23;;;;;;;;;;8213532;28;20037;-63
2024/01/21 10:55:53;;;;;;;14.98;7.78;;;;;;;;;;8212537;28;20111;-63
2024/01/21 10:59:53;;;;;;;13.55;7.25;;;;;;;;;;8222442;28;20038;-62
2024/01/21 11:04:11;;;;;;;8.65;6.50;;;;;;;;;;8220669;28;20125;-62
2024/01/21 11:08:12;;;;;;;14.02;7.75;;;;;;;;;;8209714;28;20447;-63
2024/01/21 11:12:13;;;;;;;13.27;7.60;;;;;;;;;;8221019;28;20022;-61
2024/01/21 11:16:26;;;;;;;11.30;7.68;;;;;;;;;;8216020;28;20065;-61
2024/01/21 11:20:27;;;;;;;14.48;7.35;;;;;;;;;;8216780;28;20034;-61
2024/01/21 11:24:29;;;;;;;12.50;7.97;;;;;;;;;;8213508;28;20021;-62
2024/01/21 11:28:30;;;;;;;14.18;8.10;;;;;;;;;;8214065;28;20271;-62
2024/01/21 11:32:31;;;;;;;15.68;7.10;;;;;;;;;;8216851;28;20053;-65
2024/01/21 11:36:32;;;;;;;14.80;8.50;;;;;;;;;;8217148;28;20660;-63
2024/01/21 11:40:32;;;;;;;12.80;7.32;;;;;;;;;;8211880;28;20507;-63
2024/01/21 11:44:33;;;;;;;20.23;11.02;;;;;;;;;;8213267;28;20076;-63
2024/01/21 11:48:33;;;;;;;38.70;16.88;;;;;;;;;;8217837;28;20177;-63
2024/01/21 11:52:35;;;;;;;18.05;10.25;;;;;;;;;;8211522;28;20021;-62
2024/01/21 11:56:35;;;;;;;31.80;13.40;;;;;;;;;;8209446;28;20044;-62
2024/01/21 12:00:35;;;;;;;40.40;18.08;;;;;;;;;;8213335;28;20038;-62
2024/01/21 12:04:39;;;;;;;33.65;14.90;;;;;;;;;;8211794;28;20022;-61
2024/01/21 12:08:41;;;;;;;16.05;8.55;;;;;;;;;;8210359;28;20033;-62
2024/01/21 12:12:41;;;;;;;15.60;9.27;;;;;;;;;;8213618;28;20053;-62
2024/01/21 12:16:42;;;;;;;8.20;4.88;;;;;;;;;;8211622;28;20517;-63
2024/01/21 12:20:43;;;;;;;5.65;3.75;;;;;;;;;;8212178;28;20038;-61
2024/01/21 12:24:43;;;;;;;6.03;3.47;;;;;;;;;;8213223;28;20066;-61
2024/01/21 12:29:00;;;;;;;5.35;3.97;;;;;;;;;;8213610;28;20478;-61
2024/01/21 12:33:00;;;;;;;7.40;4.13;;;;;;;;;;8216291;28;20077;-60
2024/01/21 12:37:01;;;;;;;7.22;3.92;;;;;;;;;;8210723;28;20387;-61
2024/01/21 12:41:01;;;;;;;6.88;3.80;;;;;;;;;;8209572;28;20127;-61
2024/01/21 12:45:01;;;;;;;7.63;4.07;;;;;;;;;;8214597;28;20483;-63
2024/01/21 12:49:03;;;;;;;7.10;4.50;;;;;;;;;;8212203;28;20270;-63
2024/01/21 12:53:03;;;;;;;8.13;4.82;;;;;;;;;;8211496;28;20276;-63
2024/01/21 12:57:03;;;;;;;9.80;5.20;;;;;;;;;;8214558;28;20510;-63
2024/01/21 13:01:04;;;;;;;7.93;5.05;;;;;;;;;;8210995;28;20301;-63
2024/01/21 13:05:04;;;;;;;8.70;4.82;;;;;;;;;;8218588;28;20514;-63
2024/01/21 13:09:05;;;;;;;6.95;4.88;;;;;;;;;;8212158;28;20030;-63
2024/01/21 13:13:05;;;;;;;7.15;4.70;;;;;;;;;;8211896;28;20100;-64
2024/01/21 13:17:06;;;;;;;6.20;4.10;;;;;;;;;;8213552;28;20038;-64
2024/01/21 13:21:07;;;;;;;7.25;4.35;;;;;;;;;;8213618;28;20438;-63
2024/01/21 13:25:07;;;;;;;8.32;4.45;;;;;;;;;;8221151;28;20034;-63
2024/01/21 13:33:08;;;;;;;6.07;4.13;;;;;;;;;;8218152;28;20289;-64
2024/01/21 13:37:12;;;;;;;4.63;3.45;;;;;;;;;;8220213;28;20030;-62
2024/01/21 13:41:12;;;;;;;4.50;3.63;;;;;;;;;;8221264;28;20030;-62
2024/01/21 13:45:14;;;;;;;6.25;3.50;;;;;;;;;;8216308;28;20029;-62
2024/01/21 13:49:14;;;;;;;5.55;3.60;;;;;;;;;;8220205;28;20023;-62
2024/01/21 13:53:14;;;;;;;5.13;3.50;;;;;;;;;;8217606;28;20036;-62
2024/01/21 13:57:14;;;;;;;7.45;3.88;;;;;;;;;;8219557;28;20441;-60
2024/01/21 14:01:15;;;;;;;6.50;3.85;;;;;;;;;;8224974;28;20919;-60
2024/01/21 14:05:15;;;;;;;6.00;3.40;;;;;;;;;;8218960;28;20232;-60
2024/01/21 14:09:15;;;;;;;6.70;3.63;;;;;;;;;;8219157;28;20316;-60
2024/01/21 14:13:15;;;;;;;6.50;3.75;;;;;;;;;;8220851;28;20613;-60
2024/01/21 14:17:15;;;;;;;6.05;3.95;;;;;;;;;;8218715;28;20539;-63
2024/01/21 14:21:16;;;;;;;7.43;5.20;;;;;;;;;;8219876;28;20053;-62
2024/01/21 14:25:18;;;;;;;9.98;5.45;;;;;;;;;;8214505;28;20041;-62
2024/01/21 14:29:34;;;;;;;9.02;4.85;;;;;;;;;;8220685;28;20030;-63
2024/01/21 14:33:34;;;;;;;7.72;4.95;;;;;;;;;;8226725;28;20548;-63
2024/01/21 14:37:36;;;;;;;13.68;7.80;;;;;;;;;;8228038;28;20119;-63
2024/01/21 14:41:36;;;;;;;8.38;5.70;;;;;;;;;;8222907;28;20035;-63
2024/01/21 14:45:36;;;;;;;10.05;6.43;;;;;;;;;;8218154;28;20136;-61
2024/01/21 14:49:36;;;;;;;7.38;5.03;;;;;;;;;;8215626;28;20034;-61
2024/01/21 14:53:36;;;;;;;17.75;9.40;;;;;;;;;;8216382;28;20123;-61
2024/01/21 14:57:37;;;;;;;9.02;5.43;;;;;;;;;;8219371;28;20034;-61
2024/01/21 15:01:37;;;;;;;5.65;3.40;;;;;;;;;;8218596;28;20034;-61
2024/01/21 15:05:37;;;;;;;7.25;3.45;;;;;;;;;;8219341;28;20498;-64
2024/01/21 15:09:38;;;;;;;6.05;3.70;;;;;;;;;;8211516;28;20030;-63
2024/01/21 15:13:39;;;;;;;7.90;3.50;;;;;;;;;;8217202;28;20030;-64
2024/01/21 15:17:40;;;;;;;6.55;3.33;;;;;;;;;;8215663;28;20971;-63
2024/01/21 15:21:40;;;;;;;5.32;3.45;;;;;;;;;;8213324;28;20033;-63
2024/01/21 15:25:40;;;;;;;6.53;3.22;;;;;;;;;;8217529;28;20037;-62
2024/01/21 15:29:40;;;;;;;8.20;3.35;;;;;;;;;;8217038;28;20034;-61
2024/01/21 15:33:40;;;;;;;8.90;3.40;;;;;;;;;;8217531;28;20058;-61
2024/01/21 15:37:41;;;;;;;7.57;3.45;;;;;;;;;;8216047;28;20570;-62
2024/01/21 15:41:41;;;;;;;6.20;3.10;;;;;;;;;;8215043;28;20537;-64
2024/01/21 15:45:41;;;;;;;6.25;3.05;;;;;;;;;;8212642;28;20574;-61
2024/01/21 15:49:41;;;;;;;10.50;3.22;;;;;;;;;;8215094;28;20413;-61
2024/01/21 15:53:41;;;;;;;10.00;3.17;;;;;;;;;;8213921;28;20502;-61
2024/01/21 15:57:42;;;;;;;5.60;3.03;;;;;;;;;;8216530;28;20026;-61
2024/01/21 16:01:42;;;;;;;6.57;3.22;;;;;;;;;;8215745;28;20046;-62
2024/01/21 16:05:42;;;;;;;6.30;3.17;;;;;;;;;;8217360;28;20555;-62
2024/01/21 16:09:42;;;;;;;16.00;8.27;;;;;;;;;;8214440;28;20767;-62
2024/01/21 16:13:42;;;;;;;6.57;3.63;;;;;;;;;;8218888;28;20688;-60
2024/01/21 16:17:45;;;;;;;8.55;3.60;;;;;;;;;;8215998;28;20038;-63
2024/01/21 16:21:46;;;;;;;6.35;3.05;;;;;;;;;;8214192;28;20479;-62
2024/01/21 16:25:46;;;;;;;10.98;3.38;;;;;;;;;;8219329;28;20599;-63
2024/01/21 16:29:47;;;;;;;5.50;2.78;;;;;;;;;;8213552;28;20108;-63
2024/01/21 16:33:47;;;;;;;5.22;2.55;;;;;;;;;;8210664;28;20517;-63
2024/01/21 16:37:47;;;;;;;7.95;3.40;;;;;;;;;;8212813;28;20029;-63
2024/01/21 16:41:48;;;;;;;7.00;2.60;;;;;;;;;;8210243;28;20038;-63
2024/01/21 16:45:48;;;;;;;9.43;3.40;;;;;;;;;;8217437;28;20065;-63
2024/01/21 16:49:48;;;;;;;9.60;4.70;;;;;;;;;;8212209;28;20112;-63
2024/01/21 16:53:51;;;;;;;5.72;3.60;;;;;;;;;;8212372;28;20026;-63
2024/01/21 16:57:51;;;;;;;6.88;3.75;;;;;;;;;;8212632;28;20025;-64
2024/01/21 17:01:53;;;;;;;7.40;3.40;;;;;;;;;;8204300;28;20046;-64
2024/01/21 17:05:53;;;;;;;5.55;3.47;;;;;;;;;;8211377;28;20306;-64
2024/01/21 17:09:54;;;;;;;8.82;3.70;;;;;;;;;;8213566;28;20030;-63
2024/01/21 17:13:54;;;;;;;8.25;4.43;;;;;;;;;;8211075;28;20038;-64
2024/01/21 17:18:01;;;;;;;7.53;4.93;;;;;;;;;;8207026;28;20042;-63
2024/01/21 17:22:01;;;;;;;10.30;4.78;;;;;;;;;;8202613;28;20549;-63
2024/01/21 17:26:01;;;;;;;10.52;4.10;;;;;;;;;;8208592;28;20113;-63
2024/01/21 17:30:05;;;;;;;7.22;3.22;;;;;;;;;;8208055;28;20018;-63
2024/01/21 17:34:05;;;;;;;6.57;3.80;;;;;;;;;;8208947;28;20073;-63
2024/01/21 17:38:05;;;;;;;11.93;5.38;;;;;;;;;;8208486;28;20018;-63
2024/01/21 17:42:07;;;;;;;13.13;5.10;;;;;;;;;;8202098;28;20014;-64
2024/01/21 17:46:12;;;;;;;7.93;5.03;;;;;;;;;;8199965;28;20853;-64
2024/01/21 17:50:12;;;;;;;9.75;4.20;;;;;;;;;;8196844;28;20389;-63
2024/01/21 17:54:14;;;;;;;9.98;4.05;;;;;;;;;;8200999;28;20107;-63
2024/01/21 17:58:15;;;;;;;9.20;3.72;;;;;;;;;;8203315;28;20080;-63
2024/01/21 18:02:15;;;;;;;6.22;3.42;;;;;;;;;;8205507;28;20038;-63
2024/01/21 18:06:15;;;;;;;8.15;3.42;;;;;;;;;;8203370;28;20391;-63
2024/01/21 18:10:15;;;;;;;6.18;3.13;;;;;;;;;;8211182;28;20710;-64
2024/01/21 18:14:15;;;;;;;8.77;4.57;;;;;;;;;;8212784;28;20391;-64
2024/01/21 18:18:15;;;;;;;4.93;2.80;;;;;;;;;;8216178;28;20038;-64
2024/01/21 18:22:17;;;;;;;8.18;3.60;;;;;;;;;;8212575;28;20031;-64
2024/01/21 18:26:17;;;;;;;6.93;3.30;;;;;;;;;;8223155;28;20395;-64
2024/01/21 18:30:17;;;;;;;7.80;3.17;;;;;;;;;;8218698;28;20026;-65
2024/01/21 18:34:21;;;;;;;6.13;3.50;;;;;;;;;;8221887;28;20034;-64
2024/01/21 18:38:21;;;;;;;5.22;2.70;;;;;;;;;;8207842;28;20141;-63
2024/01/21 18:42:23;;;;;;;7.20;3.00;;;;;;;;;;8215907;28;20116;-64
2024/01/21 18:46:24;;;;;;;4.25;2.30;;;;;;;;;;8214756;28;20311;-63
2024/01/21 18:50:24;;;;;;;9.20;5.45;;;;;;;;;;8203983;28;20030;-64
2024/01/21 18:54:24;;;;;;;6.50;2.95;;;;;;;;;;8209444;28;20542;-63
2024/01/21 18:58:24;;;;;;;6.97;2.70;;;;;;;;;;8205819;28;20029;-63
2024/01/21 19:02:27;;;;;;;6.47;3.28;;;;;;;;;;8210133;28;20124;-63
2024/01/21 19:06:27;;;;;;;5.47;2.78;;;;;;;;;;8208069;28;20022;-62
2024/01/21 19:10:27;;;;;;;6.53;2.50;;;;;;;;;;8205682;28;20111;-64
2024/01/21 19:14:27;;;;;;;6.45;2.67;;;;;;;;;;8208262;28;20848;-63
2024/01/21 19:18:27;;;;;;;5.63;2.40;;;;;;;;;;8208083;28;20041;-62
2024/01/21 19:22:27;;;;;;;6.55;2.60;;;;;;;;;;8206501;28;20041;-60
2024/01/21 19:26:28;;;;;;;6.85;2.80;;;;;;;;;;8206557;28;20030;-62
2024/01/21 19:30:28;;;;;;;6.63;3.00;;;;;;;;;;8207196;28;20417;-61
2024/01/21 19:34:28;;;;;;;4.50;2.50;;;;;;;;;;8207303;28;20089;-62
2024/01/21 19:38:28;;;;;;;9.02;3.40;;;;;;;;;;8208538;28;20800;-62
2024/01/21 19:42:29;;;;;;;7.50;3.83;;;;;;;;;;8208335;28;20528;-62
2024/01/21 19:46:29;;;;;;;6.57;3.20;;;;;;;;;;8206818;28;20042;-62
2024/01/21 19:50:29;;;;;;;4.10;2.83;;;;;;;;;;8206018;28;20269;-63
2024/01/21 19:54:32;;;;;;;4.57;2.75;;;;;;;;;;8207724;28;20597;-62
2024/01/21 19:58:32;;;;;;;6.47;4.03;;;;;;;;;;8204306;28;20026;-63
2024/01/21 20:02:33;;;;;;;7.45;3.80;;;;;;;;;;8205179;28;20480;-63
2024/01/21 20:06:33;;;;;;;5.90;3.95;;;;;;;;;;8204806;28;20113;-64
2024/01/21 20:10:33;;;;;;;6.15;3.15;;;;;;;;;;8205559;28;20382;-63
2024/01/21 20:14:33;;;;;;;5.47;3.10;;;;;;;;;;8207107;28;20033;-63
2024/01/21 20:18:34;;;;;;;7.15;2.80;;;;;;;;;;8210563;28;20600;-63
2024/01/21 20:22:34;;;;;;;5.67;2.50;;;;;;;;;;8209206;28;20416;-64
2024/01/21 20:26:34;;;;;;;5.68;2.40;;;;;;;;;;8214351;28;20342;-65
2024/01/21 20:30:34;;;;;;;7.32;2.42;;;;;;;;;;8215743;28;20045;-64
2024/01/21 20:34:35;;;;;;;8.65;2.70;;;;;;;;;;8207172;28;20034;-64
2024/01/21 20:38:35;;;;;;;5.18;2.22;;;;;;;;;;8207343;28;20053;-64
2024/01/21 20:42:36;;;;;;;5.10;2.70;;;;;;;;;;8221597;28;20041;-64
2024/01/21 20:46:36;;;;;;;5.03;2.10;;;;;;;;;;8206115;28;20217;-63
2024/01/21 20:50:36;;;;;;;6.47;2.50;;;;;;;;;;8206573;28;20026;-63
2024/01/21 20:54:38;;;;;;;4.78;2.20;;;;;;;;;;8206138;28;20017;-64
2024/01/21 20:58:38;;;;;;;5.28;1.90;;;;;;;;;;8209264;28;20225;-64
2024/01/21 21:02:39;;;;;;;6.60;2.40;;;;;;;;;;8208211;28;20902;-62
2024/01/21 21:06:39;;;;;;;2.10;1.42;;;;;;;;;;8209968;28;20582;-62
2024/01/21 21:10:39;;;;;;;5.25;2.00;;;;;;;;;;8208047;28;20019;-65
2024/01/21 21:14:44;;;;;;;3.78;2.00;;;;;;;;;;8203036;28;20030;-65
2024/01/21 21:18:45;;;;;;;6.22;1.90;;;;;;;;;;8204346;28;20650;-64
2024/01/21 21:22:46;;;;;;;6.65;2.22;;;;;;;;;;8205579;28;20029;-64
2024/01/21 21:26:46;;;;;;;3.83;1.75;;;;;;;;;;8199539;28;20030;-64
2024/01/21 21:30:46;;;;;;;4.10;1.80;;;;;;;;;;8201302;28;20186;-63
2024/01/21 21:34:46;;;;;;;7.13;2.05;;;;;;;;;;8204208;28;20026;-64
2024/01/21 21:38:47;;;;;;;4.53;1.67;;;;;;;;;;8204493;28;20515;-63
2024/01/21 21:42:47;;;;;;;11.15;4.20;;;;;;;;;;8212759;28;20033;-65
2024/01/21 21:46:47;;;;;;;2.85;1.83;;;;;;;;;;8210496;28;20036;-64
2024/01/21 21:50:48;;;;;;;3.90;1.85;;;;;;;;;;8218953;28;20113;-64
2024/01/21 21:54:48;;;;;;;5.68;3.10;;;;;;;;;;8215849;28;20980;-64
2024/01/21 21:58:51;;;;;;;4.82;1.70;;;;;;;;;;8213958;28;20025;-64
2024/01/21 22:02:54;;;;;;;7.22;1.70;;;;;;;;;;8215892;28;20628;-65
2024/01/21 22:06:54;;;;;;;3.85;1.90;;;;;;;;;;8217025;28;20026;-65
2024/01/21 22:10:54;;;;;;;5.22;2.10;;;;;;;;;;8230415;28;20860;-64
2024/01/21 22:14:55;;;;;;;3.67;2.00;;;;;;;;;;8218996;28;20033;-65
2024/01/21 22:18:59;;;;;;;7.60;2.05;;;;;;;;;;8200588;28;20050;-64
2024/01/21 22:22:59;;;;;;;6.68;2.40;;;;;;;;;;8201300;28;20049;-64
2024/01/21 22:26:59;;;;;;;2.90;1.65;;;;;;;;;;8209559;28;20026;-64
2024/01/21 22:30:59;;;;;;;3.78;1.60;;;;;;;;;;8205541;28;20030;-64
2024/01/21 22:35:00;;;;;;;3.00;1.92;;;;;;;;;;8211868;28;20037;-63
2024/01/21 22:39:00;;;;;;;6.33;2.20;;;;;;;;;;8211025;28;20076;-63
2024/01/21 22:43:00;;;;;;;4.63;2.27;;;;;;;;;;8206621;28;20747;-63
2024/01/21 22:47:00;;;;;;;5.60;2.53;;;;;;;;;;8219230;28;20494;-63
2024/01/21 22:51:01;;;;;;;5.57;2.20;;;;;;;;;;8214679;28;20018;-64
2024/01/21 22:55:01;;;;;;;5.25;2.08;;;;;;;;;;8210643;28;20092;-64
2024/01/21 22:59:01;;;;;;;6.80;2.75;;;;;;;;;;8210691;28;20411;-64
2024/01/21 23:03:01;;;;;;;8.18;2.72;;;;;;;;;;8211911;28;20034;-64
2024/01/21 23:07:03;;;;;;;5.28;2.38;;;;;;;;;;8212444;28;20048;-63
2024/01/21 23:11:03;;;;;;;4.15;2.15;;;;;;;;;;8213003;28;20141;-63
2024/01/21 23:15:04;;;;;;;7.93;2.00;;;;;;;;;;8204843;28;20319;-64
2024/01/21 23:19:04;;;;;;;4.97;1.92;;;;;;;;;;8205520;28;20463;-64
2024/01/21 23:23:04;;;;;;;8.05;2.05;;;;;;;;;;8207242;28;20113;-62
2024/01/21 23:27:04;;;;;;;6.05;1.95;;;;;;;;;;8207488;28;20936;-64
2024/01/21 23:31:05;;;;;;;3.72;2.10;;;;;;;;;;8212915;28;20027;-62
2024/01/21 23:35:05;;;;;;;4.82;1.70;;;;;;;;;;8216396;28;20117;-62
2024/01/21 23:39:05;;;;;;;5.82;1.90;;;;;;;;;;8213328;28;20026;-61
2024/01/21 23:43:06;;;;;;;6.63;1.67;;;;;;;;;;8214126;28;20131;-61
2024/01/21 23:47:07;;;;;;;7.43;1.90;;;;;;;;;;8213057;28;20639;-60